Time;durP1;ratioP1;P1;durP2;ratioP2;P2;SDS_P1;SDS_P2;PMS_P1;PMS_P2;Temp;Humidity;BMP_temperature;BMP_pressure;BME280_temperature;BME280_humidity;BME280_pressure;Samples;Min_cycle;Max_cycle;Signal;HPM_P1;HPM_P2
2021/11/09 00:02:38;;;;;;;17.42;8.68;;;23.50;51.10;;;;;;6145687;28;80522;-62
2021/11/09 00:05:53;;;;;;;15.27;9.85;;;23.50;50.70;;;;;;6151545;28;80364;-63
2021/11/09 00:08:56;;;;;;;15.77;9.25;;;23.50;50.70;;;;;;6152284;28;80333;-62
2021/11/09 00:11:57;;;;;;;13.65;8.77;;;23.50;50.60;;;;;;6152056;28;81730;-62
2021/11/09 00:14:57;;;;;;;16.25;10.50;;;23.50;50.60;;;;;;6154425;28;80858;-62
2021/11/09 00:17:58;;;;;;;15.30;9.23;;;23.50;50.50;;;;;;6153308;28;84548;-62
2021/11/09 00:20:58;;;;;;;15.88;9.63;;;23.50;50.50;;;;;;6146897;28;84542;-62
2021/11/09 00:24:00;;;;;;;14.85;9.13;;;23.50;50.60;;;;;;6145961;28;80624;-62
2021/11/09 00:27:01;;;;;;;19.75;10.68;;;23.50;50.20;;;;;;6146451;28;81889;-61
2021/11/09 00:30:01;;;;;;;15.27;10.00;;;23.50;49.90;;;;;;6154846;28;83157;-61
2021/11/09 00:33:02;;;;;;;16.05;8.60;;;23.50;50.10;;;;;;6143074;28;84188;-61
2021/11/09 00:36:02;;;;;;;17.15;9.00;;;23.50;50.60;;;;;;6149758;28;82959;-62
2021/11/09 00:39:04;;;;;;;16.67;9.90;;;23.50;50.40;;;;;;6142421;28;80523;-61
2021/11/09 00:42:05;;;;;;;13.95;8.70;;;23.50;50.30;;;;;;6150299;28;81553;-62
2021/11/09 00:45:05;;;;;;;12.80;8.57;;;23.50;50.60;;;;;;6150834;28;80640;-62
2021/11/09 00:48:06;;;;;;;14.30;8.77;;;23.50;50.60;;;;;;6153137;28;81972;-62
2021/11/09 00:51:06;;;;;;;15.73;8.93;;;23.50;50.70;;;;;;6140023;28;81103;-62
2021/11/09 00:54:07;;;;;;;14.00;8.10;;;23.50;50.80;;;;;;6153154;28;80874;-62
2021/11/09 00:57:07;;;;;;;12.82;8.63;;;23.50;50.10;;;;;;6149476;28;80449;-62
2021/11/09 01:00:08;;;;;;;14.60;8.75;;;23.50;51.10;;;;;;6150289;28;81001;-62
2021/11/09 01:03:09;;;;;;;15.60;8.70;;;23.50;50.60;;;;;;6166359;28;81423;-62
2021/11/09 01:06:09;;;;;;;12.68;8.52;;;23.50;50.70;;;;;;6153194;28;80680;-62
2021/11/09 01:09:10;;;;;;;12.60;8.00;;;23.50;50.50;;;;;;6154170;28;80875;-62
2021/11/09 01:12:10;;;;;;;13.57;8.50;;;23.50;50.50;;;;;;6143854;28;80562;-62
2021/11/09 01:15:11;;;;;;;12.80;8.38;;;23.50;50.70;;;;;;6152784;28;80292;-62
2021/11/09 01:18:11;;;;;;;14.30;8.02;;;23.50;51.30;;;;;;6145774;28;81460;-62
2021/11/09 01:21:12;;;;;;;14.73;8.25;;;23.50;50.40;;;;;;6141042;28;81059;-62
2021/11/09 01:24:14;;;;;;;11.48;7.70;;;23.50;50.20;;;;;;6155478;28;82748;-62
2021/11/09 01:27:15;;;;;;;13.25;8.18;;;23.50;50.40;;;;;;6141510;28;80514;-62
2021/11/09 01:30:17;;;;;;;14.07;8.65;;;23.50;50.20;;;;;;6141670;28;81965;-63
2021/11/09 01:33:17;;;;;;;12.23;7.55;;;23.50;50.10;;;;;;6149564;28;80111;-62
2021/11/09 01:36:18;;;;;;;10.77;7.15;;;23.50;50.50;;;;;;6137663;28;81916;-62
2021/11/09 01:39:18;;;;;;;13.65;7.75;;;23.50;51.30;;;;;;6158842;28;80425;-62
2021/11/09 01:42:19;;;;;;;13.10;7.53;;;23.40;50.20;;;;;;6155830;28;80786;-62
2021/11/09 01:45:19;;;;;;;12.07;7.30;;;23.40;50.30;;;;;;6138348;28;80168;-62
2021/11/09 01:48:20;;;;;;;11.40;7.28;;;23.50;50.30;;;;;;6142421;28;80450;-62
2021/11/09 01:51:20;;;;;;;11.20;7.18;;;23.50;50.10;;;;;;6145716;28;81229;-62
2021/11/09 01:54:21;;;;;;;11.70;7.03;;;23.50;50.20;;;;;;6141689;28;81812;-62
2021/11/09 01:57:21;;;;;;;13.35;7.70;;;23.40;50.10;;;;;;6147508;28;80489;-63
2021/11/09 02:00:23;;;;;;;14.35;8.27;;;23.40;50.00;;;;;;6149360;28;81001;-62
2021/11/09 02:03:23;;;;;;;12.23;7.72;;;23.50;49.90;;;;;;6150835;28;80867;-62
2021/11/09 02:06:24;;;;;;;11.77;7.47;;;23.50;49.70;;;;;;6155693;28;81620;-62
2021/11/09 02:09:24;;;;;;;13.13;7.68;;;23.50;49.40;;;;;;6146911;28;80710;-62
2021/11/09 02:12:25;;;;;;;12.25;7.38;;;23.50;49.60;;;;;;6156468;28;81422;-62
2021/11/09 02:15:26;;;;;;;12.25;7.32;;;23.40;49.70;;;;;;6161448;28;80542;-62
2021/11/09 02:18:26;;;;;;;12.63;7.00;;;23.50;49.90;;;;;;6142396;28;81071;-62
2021/11/09 02:21:27;;;;;;;11.73;7.25;;;23.50;49.90;;;;;;6145119;28;87234;-62
2021/11/09 02:24:27;;;;;;;10.45;6.95;;;23.50;50.20;;;;;;6153162;28;80396;-62
2021/11/09 02:27:28;;;;;;;11.85;7.68;;;23.50;50.40;;;;;;6149835;28;80378;-62
2021/11/09 02:30:28;;;;;;;10.93;6.32;;;23.50;49.70;;;;;;6153180;28;80741;-63
2021/11/09 02:33:29;;;;;;;11.00;6.53;;;23.50;49.80;;;;;;6144256;28;80410;-62
2021/11/09 02:36:29;;;;;;;11.73;7.13;;;23.50;49.70;;;;;;6143080;28;80691;-62
2021/11/09 02:39:30;;;;;;;10.07;6.43;;;23.50;49.70;;;;;;6156788;28;80679;-62
2021/11/09 02:42:30;;;;;;;11.48;6.88;;;23.50;50.90;;;;;;6150647;28;80778;-62
2021/11/09 02:45:34;;;;;;;13.63;7.35;;;23.50;49.60;;;;;;6146459;28;81698;-62
2021/11/09 02:48:39;;;;;;;10.75;6.57;;;23.50;49.60;;;;;;6149532;28;80606;-62
2021/11/09 02:51:51;;;;;;;10.10;6.97;;;23.50;49.70;;;;;;6143769;28;80277;-62
2021/11/09 02:54:58;;;;;;;11.82;6.50;;;23.50;49.70;;;;;;6145915;28;80963;-61
2021/11/09 03:04:11;;;;;;;10.95;6.57;;;23.50;50.00;;;;;;6156271;28;80267;-62
2021/11/09 03:10:38;;;;;;;10.63;6.35;;;23.40;49.30;;;;;;6153887;28;80674;-62
2021/11/09 03:13:39;;;;;;;11.27;7.05;;;23.50;49.30;;;;;;6154753;28;80830;-63
2021/11/09 03:16:41;;;;;;;9.95;6.50;;;23.50;49.50;;;;;;6152203;28;80636;-63
2021/11/09 03:19:55;;;;;;;9.43;6.28;;;23.50;48.70;;;;;;6157086;28;81649;-62
2021/11/09 03:46:11;;;;;;;11.20;6.50;;;23.60;47.10;;;;;;6151658;28;80666;-62
2021/11/09 03:49:13;;;;;;;10.20;6.40;;;23.70;47.00;;;;;;6152290;28;81579;-62
2021/11/09 03:52:18;;;;;;;9.38;6.45;;;23.70;47.00;;;;;;6150424;28;80189;-62
2021/11/09 03:58:42;;;;;;;12.33;6.83;;;23.80;47.00;;;;;;6142224;28;81609;-62
2021/11/09 04:05:09;;;;;;;9.63;5.70;;;23.80;47.00;;;;;;6153222;28;82569;-62
2021/11/09 04:08:30;;;;;;;10.15;6.03;;;23.80;46.90;;;;;;6142525;28;80464;-63
2021/11/09 04:12:01;;;;;;;9.65;5.60;;;23.90;46.90;;;;;;6147223;28;80740;-62
2021/11/09 04:18:33;;;;;;;11.07;6.55;;;23.90;46.80;;;;;;6143208;28;80108;-62
2021/11/09 04:39:02;;;;;;;10.35;6.57;;;23.90;46.60;;;;;;6147534;28;81641;-62
2021/11/09 05:01:36;;;;;;;9.68;6.03;;;24.00;46.40;;;;;;6147910;28;80547;-69
2021/11/09 05:11:12;;;;;;;7.43;4.55;;;23.70;49.10;;;;;;6155721;28;80435;-65
2021/11/09 05:14:12;;;;;;;6.38;4.63;;;23.80;50.00;;;;;;6155063;28;81198;-65
2021/11/09 05:17:13;;;;;;;7.18;4.20;;;23.70;50.40;;;;;;6149766;28;80360;-68
2021/11/09 05:20:13;;;;;;;6.30;3.85;;;23.70;50.90;;;;;;6159303;28;80583;-70
2021/11/09 05:23:14;;;;;;;13.93;3.63;;;23.70;51.40;;;;;;6149641;28;80579;-72
2021/11/09 05:26:15;;;;;;;8.18;4.03;;;23.70;51.80;;;;;;6149654;28;80851;-69
2021/11/09 05:29:15;;;;;;;7.72;4.40;;;23.70;52.20;;;;;;6152029;28;80980;-68
2021/11/09 05:32:16;;;;;;;8.43;4.68;;;23.70;52.70;;;;;;6142284;28;81093;-66
2021/11/09 05:35:16;;;;;;;8.45;4.32;;;23.70;53.40;;;;;;6141626;28;80564;-65
2021/11/09 05:38:19;;;;;;;11.32;5.00;;;23.70;53.50;;;;;;6148873;28;80665;-63
2021/11/09 05:41:22;;;;;;;11.55;5.00;;;23.70;54.00;;;;;;6146352;28;80697;-65
2021/11/09 05:44:23;;;;;;;11.52;5.10;;;23.60;54.40;;;;;;6139059;28;80667;-65
2021/11/09 05:47:23;;;;;;;14.02;6.30;;;23.60;54.80;;;;;;6148597;28;80389;-65
2021/11/09 05:50:24;;;;;;;60.90;18.20;;;23.60;55.00;;;;;;6148806;28;81152;-65
2021/11/09 05:53:25;;;;;;;91.10;27.92;;;23.60;55.30;;;;;;6139855;28;84164;-65
2021/11/09 05:56:25;;;;;;;97.43;35.65;;;23.60;55.70;;;;;;6147627;28;84027;-66
2021/11/09 05:59:26;;;;;;;149.68;51.20;;;23.60;56.00;;;;;;6151479;28;85382;-64
2021/11/09 06:02:27;;;;;;;175.70;59.65;;;23.60;56.60;;;;;;6142732;28;82988;-65
2021/11/09 06:05:28;;;;;;;151.40;54.35;;;23.70;57.30;;;;;;6147096;28;83189;-65
2021/11/09 06:08:28;;;;;;;129.10;47.17;;;23.70;56.90;;;;;;6147773;28;82996;-67
2021/11/09 06:11:29;;;;;;;126.22;47.70;;;23.80;56.90;;;;;;6148088;28;82879;-66
2021/11/09 06:14:29;;;;;;;119.53;44.40;;;23.80;57.00;;;;;;6136178;28;84645;-66
2021/11/09 06:17:30;;;;;;;137.20;49.90;;;23.80;56.50;;;;;;6146263;28;83388;-66
2021/11/09 06:20:31;;;;;;;106.80;40.22;;;23.80;56.80;;;;;;6149322;28;82869;-66
2021/11/09 06:23:31;;;;;;;118.30;41.80;;;23.80;56.60;;;;;;6137434;28;83090;-65
2021/11/09 06:26:32;;;;;;;105.88;41.80;;;23.80;57.20;;;;;;6149093;28;83651;-65
2021/11/09 06:29:32;;;;;;;103.60;36.13;;;23.90;56.60;;;;;;6150255;28;87862;-68
2021/11/09 06:32:32;;;;;;;95.70;37.30;;;23.90;56.50;;;;;;6141209;28;82961;-67
2021/11/09 06:35:33;;;;;;;94.55;36.83;;;23.90;56.70;;;;;;6145320;28;84009;-66
2021/11/09 06:38:34;;;;;;;81.57;33.97;;;23.80;56.90;;;;;;6132360;28;84191;-66
2021/11/09 06:41:34;;;;;;;86.68;30.83;;;23.90;56.90;;;;;;6138387;28;83282;-67
2021/11/09 06:44:34;;;;;;;74.05;30.45;;;23.90;56.80;;;;;;6139526;28;83348;-67
2021/11/09 06:47:35;;;;;;;73.95;25.95;;;23.90;56.20;;;;;;6152067;28;83354;-69
2021/11/09 06:50:36;;;;;;;54.30;22.80;;;23.90;55.20;;;;;;6148509;28;83141;-67
2021/11/09 06:53:36;;;;;;;49.17;20.85;;;23.90;54.40;;;;;;6152634;28;83101;-66
2021/11/09 06:56:37;;;;;;;36.60;16.77;;;23.90;53.40;;;;;;6142769;28;83384;-67
2021/11/09 06:59:37;;;;;;;34.58;16.42;;;23.90;52.70;;;;;;6149985;28;84225;-67
2021/11/09 07:02:38;;;;;;;26.90;12.77;;;23.90;52.20;;;;;;6149564;28;82931;-69
2021/11/09 07:05:38;;;;;;;26.45;12.38;;;23.80;52.30;;;;;;6141678;28;83052;-66
2021/11/09 07:08:39;;;;;;;20.70;10.45;;;23.80;52.50;;;;;;6139886;28;84302;-64
2021/11/09 07:11:39;;;;;;;19.52;10.05;;;23.80;52.60;;;;;;6146051;28;83238;-66
2021/11/09 07:14:40;;;;;;;22.40;9.77;;;23.80;53.00;;;;;;6145311;28;83768;-66
2021/11/09 07:17:41;;;;;;;20.45;9.80;;;23.90;52.90;;;;;;6141189;28;83201;-67
2021/11/09 07:20:42;;;;;;;17.88;8.77;;;23.90;53.20;;;;;;6144294;28;81431;-66
2021/11/09 07:23:43;;;;;;;11.65;7.13;;;23.80;53.00;;;;;;6142244;28;80175;-66
2021/11/09 07:26:43;;;;;;;15.68;7.95;;;23.90;53.30;;;;;;6141193;28;83109;-65
2021/11/09 07:29:48;;;;;;;16.30;7.45;;;23.80;53.10;;;;;;6150402;28;81584;-65
2021/11/09 07:32:49;;;;;;;13.03;7.13;;;23.90;53.10;;;;;;6150954;28;80310;-65
2021/11/09 07:35:50;;;;;;;10.43;6.57;;;23.80;53.30;;;;;;6147601;28;83048;-65
2021/11/09 07:38:50;;;;;;;10.75;5.97;;;23.80;53.20;;;;;;6146693;28;81640;-64
2021/11/09 07:41:51;;;;;;;11.88;6.50;;;23.80;52.80;;;;;;6155765;28;80182;-65
2021/11/09 07:44:53;;;;;;;9.35;5.53;;;23.80;53.30;;;;;;6152943;28;80463;-64
2021/11/09 07:47:58;;;;;;;10.05;6.13;;;23.80;52.90;;;;;;6149587;28;83280;-64
2021/11/09 07:50:58;;;;;;;9.32;5.95;;;23.70;52.80;;;;;;6149878;28;80447;-64
2021/11/09 07:54:00;;;;;;;10.43;6.03;;;23.80;52.80;;;;;;6151156;28;80443;-65
2021/11/09 07:57:05;;;;;;;12.00;6.72;;;23.70;52.40;;;;;;6148592;28;81693;-65
2021/11/09 08:00:20;;;;;;;17.15;7.00;;;23.80;52.40;;;;;;6152457;28;81605;-63
2021/11/09 08:03:24;;;;;;;11.48;6.97;;;23.80;52.50;;;;;;6153894;28;81279;-65
2021/11/09 08:06:27;;;;;;;10.20;6.07;;;23.80;53.00;;;;;;6149434;28;81885;-65
2021/11/09 08:09:31;;;;;;;11.88;6.55;;;23.80;53.30;;;;;;6151756;28;81650;-64
2021/11/09 08:12:31;;;;;;;10.20;5.82;;;23.80;53.10;;;;;;6146425;28;80794;-69
2021/11/09 08:15:32;;;;;;;9.50;5.30;;;23.80;53.10;;;;;;6151725;28;81783;-65
2021/11/09 08:18:32;;;;;;;10.55;5.70;;;23.80;53.70;;;;;;6149567;28;80476;-66
2021/11/09 08:21:33;;;;;;;13.27;7.60;;;23.80;53.20;;;;;;6148094;28;80658;-64
2021/11/09 08:24:34;;;;;;;15.63;8.48;;;23.70;50.90;;;;;;6147623;28;81207;-71
2021/11/09 08:27:34;;;;;;;13.73;8.82;;;23.60;49.60;;;;;;6155379;28;82615;-65
2021/11/09 08:30:35;;;;;;;12.00;7.00;;;23.50;50.20;;;;;;6151504;28;81677;-66
2021/11/09 08:33:35;;;;;;;12.55;6.20;;;23.60;50.60;;;;;;6152664;28;80542;-66
2021/11/09 08:36:36;;;;;;;11.55;5.85;;;23.60;51.10;;;;;;6139723;28;80377;-64
2021/11/09 08:39:41;;;;;;;10.43;4.78;;;23.60;51.70;;;;;;6144567;28;81693;-67
2021/11/09 08:42:49;;;;;;;9.67;5.23;;;23.60;52.00;;;;;;6151570;28;81301;-64
2021/11/09 08:48:53;;;;;;;9.02;5.22;;;23.70;52.60;;;;;;6143166;28;80639;-64
2021/11/09 08:51:54;;;;;;;14.48;4.70;;;23.60;52.60;;;;;;6147108;28;80686;-64
2021/11/09 08:58:20;;;;;;;9.27;4.57;;;23.70;52.90;;;;;;6157558;28;80593;-65
2021/11/09 09:04:12;;;;;;;9.02;4.68;;;23.70;52.80;;;;;;6143740;28;82920;-64
2021/11/09 09:04:41;;;;;;;12.23;4.35;;;23.70;52.50;;;;;;6140805;28;80878;-66
2021/11/09 09:07:42;;;;;;;10.73;4.63;;;23.60;52.40;;;;;;6139028;28;87217;-67
2021/11/09 09:10:42;;;;;;;8.38;4.78;;;23.60;52.90;;;;;;6153588;28;81070;-69
2021/11/09 09:13:43;;;;;;;7.88;4.55;;;23.70;52.90;;;;;;6153445;28;80585;-68
2021/11/09 09:16:47;;;;;;;9.30;4.75;;;23.70;53.50;;;;;;6155096;28;80925;-69
2021/11/09 09:19:53;;;;;;;6.80;3.85;;;23.70;53.70;;;;;;6154596;28;80605;-68
2021/11/09 09:26:37;;;;;;;7.50;4.22;;;23.70;54.10;;;;;;6138627;28;80814;-67
2021/11/09 09:56:00;;;;;;;7.72;3.33;;;23.80;54.70;;;;;;6155208;28;81544;-68
2021/11/09 09:59:00;;;;;;;5.78;3.38;;;23.80;55.30;;;;;;6151423;28;83000;-68
2021/11/09 10:02:01;;;;;;;4.45;3.22;;;23.80;54.60;;;;;;6150863;28;80265;-69
2021/11/09 10:05:01;;;;;;;4.15;3.00;;;23.80;55.20;;;;;;6151581;28;83240;-68
2021/11/09 10:08:02;;;;;;;4.95;3.65;;;23.80;54.40;;;;;;6147541;28;80761;-68
2021/11/09 10:11:02;;;;;;;7.53;3.50;;;23.90;55.00;;;;;;6153099;28;80516;-70
2021/11/09 10:14:03;;;;;;;8.95;3.90;;;23.90;55.30;;;;;;6150030;28;81484;-64
2021/11/09 10:17:03;;;;;;;5.97;3.58;;;23.90;54.90;;;;;;6140819;28;80327;-63
2021/11/09 10:20:04;;;;;;;6.18;3.53;;;23.80;54.60;;;;;;6158339;28;80363;-63
2021/11/09 10:23:04;;;;;;;6.18;3.88;;;23.90;54.30;;;;;;6147726;28;80237;-63
2021/11/09 10:26:05;;;;;;;181.95;67.20;;;23.90;54.10;;;;;;6151949;28;82664;-64
2021/11/09 10:29:06;;;;;;;412.38;146.90;;;23.80;54.60;;;;;;6142864;28;83235;-62
2021/11/09 10:32:06;;;;;;;270.48;103.30;;;23.80;55.10;;;;;;6141929;28;86244;-63
2021/11/09 10:35:07;;;;;;;210.57;86.57;;;23.70;55.10;;;;;;6139551;28;85855;-64
2021/11/09 10:38:07;;;;;;;181.07;66.85;;;23.70;55.40;;;;;;6141598;28;85725;-64
2021/11/09 10:41:08;;;;;;;323.23;121.80;;;23.80;55.20;;;;;;6156386;28;83143;-65
2021/11/09 10:44:08;;;;;;;465.40;190.27;;;23.80;55.80;;;;;;6144008;28;86132;-64
2021/11/09 10:47:09;;;;;;;412.27;165.95;;;23.80;56.00;;;;;;6136582;28;85879;-64
2021/11/09 10:50:09;;;;;;;303.02;124.47;;;23.80;56.00;;;;;;6135632;28;85833;-65
2021/11/09 10:53:19;;;;;;;240.27;100.75;;;23.80;56.00;;;;;;6140505;28;86551;-66
2021/11/09 10:56:28;;;;;;;217.45;90.53;;;23.80;55.80;;;;;;6143130;28;85698;-64
2021/11/09 10:59:30;;;;;;;186.38;75.32;;;23.80;55.60;;;;;;6149882;28;85850;-64
2021/11/09 11:05:50;;;;;;;143.10;58.10;;;23.80;56.00;;;;;;6138886;28;90475;-63
2021/11/09 11:08:50;;;;;;;127.00;50.00;;;23.80;56.00;;;;;;6145989;28;83794;-64
2021/11/09 11:11:51;;;;;;;115.65;45.67;;;23.80;56.70;;;;;;6149983;28;83130;-63
2021/11/09 11:14:52;;;;;;;89.93;38.65;;;23.80;57.40;;;;;;6150849;28;83364;-63
2021/11/09 11:17:52;;;;;;;90.88;36.65;;;23.80;57.80;;;;;;6144373;28;83057;-63
2021/11/09 11:20:53;;;;;;;77.55;32.70;;;23.80;57.80;;;;;;6152959;28;84694;-63
2021/11/09 11:23:54;;;;;;;73.80;29.15;;;23.80;58.00;;;;;;6147882;28;86064;-63
2021/11/09 11:26:54;;;;;;;67.72;26.48;;;23.80;58.10;;;;;;6149283;28;86002;-64
2021/11/09 11:29:55;;;;;;;52.05;22.80;;;23.90;58.30;;;;;;6144298;28;84155;-64
2021/11/09 11:32:55;;;;;;;54.95;22.60;;;23.80;57.40;;;;;;6142649;28;83478;-64
2021/11/09 11:35:56;;;;;;;51.22;20.73;;;23.80;56.90;;;;;;6147066;28;86164;-63
2021/11/09 11:38:56;;;;;;;49.42;20.25;;;23.80;57.20;;;;;;6151439;28;83078;-64
2021/11/09 11:41:57;;;;;;;36.70;15.82;;;23.80;57.30;;;;;;6155764;28;83456;-64
2021/11/09 11:44:57;;;;;;;40.03;16.25;;;23.80;57.50;;;;;;6143643;28;83183;-64
2021/11/09 11:47:58;;;;;;;34.22;14.65;;;23.80;57.50;;;;;;6140820;28;83033;-64
2021/11/09 11:50:59;;;;;;;35.80;14.57;;;23.70;56.90;;;;;;6148252;28;85791;-64
2021/11/09 11:53:59;;;;;;;28.92;12.63;;;23.80;57.10;;;;;;6147990;28;83369;-64
2021/11/09 11:57:00;;;;;;;28.75;12.93;;;23.80;56.80;;;;;;6148345;28;83878;-64
2021/11/09 12:00:00;;;;;;;24.17;11.55;;;23.80;56.20;;;;;;6141563;28;82998;-64
2021/11/09 12:03:01;;;;;;;24.15;10.80;;;23.80;56.30;;;;;;6147109;28;83205;-65
2021/11/09 12:06:02;;;;;;;20.33;9.95;;;23.80;56.40;;;;;;6148407;28;83693;-63
2021/11/09 12:09:03;;;;;;;20.60;10.55;;;23.80;56.00;;;;;;6155076;28;82967;-63
2021/11/09 12:12:03;;;;;;;18.60;9.10;;;23.80;55.50;;;;;;6150496;28;83075;-64
2021/11/09 12:15:04;;;;;;;16.67;8.82;;;23.90;55.30;;;;;;6153598;28;83004;-65
2021/11/09 12:18:05;;;;;;;15.80;7.95;;;23.80;55.00;;;;;;6138647;28;80602;-62
2021/11/09 12:21:06;;;;;;;18.42;9.20;;;23.80;53.80;;;;;;6139764;28;81779;-62
2021/11/09 12:24:06;;;;;;;15.90;8.95;;;23.70;49.00;;;;;;6146851;28;80708;-62
2021/11/09 12:27:06;;;;;;;17.17;9.93;;;23.60;47.20;;;;;;6145857;28;81066;-62
2021/11/09 12:30:07;;;;;;;15.30;8.80;;;23.50;46.10;;;;;;6145603;28;81281;-63
2021/11/09 12:33:11;;;;;;;18.77;9.45;;;23.40;45.60;;;;;;6137370;28;80918;-63
2021/11/09 12:36:11;;;;;;;11.25;7.82;;;23.50;44.80;;;;;;6147834;28;80718;-61
2021/11/09 12:39:12;;;;;;;13.10;8.18;;;23.50;44.00;;;;;;6151164;28;81267;-62
2021/11/09 12:42:12;;;;;;;15.63;8.13;;;23.50;43.90;;;;;;6143506;28;80396;-63
2021/11/09 12:45:13;;;;;;;13.20;7.65;;;23.50;43.20;;;;;;6145213;28;81556;-62
2021/11/09 12:48:13;;;;;;;16.48;8.82;;;23.50;42.70;;;;;;6144621;28;81457;-63
2021/11/09 12:51:14;;;;;;;13.75;9.00;;;23.50;42.00;;;;;;6153816;28;80909;-63
2021/11/09 12:54:14;;;;;;;15.10;9.23;;;23.50;42.40;;;;;;6150748;28;80910;-63
2021/11/09 12:57:15;;;;;;;14.63;9.02;;;23.50;42.40;;;;;;6153840;28;80547;-63
2021/11/09 13:00:25;;;;;;;10.77;7.43;;;23.60;42.00;;;;;;6150971;28;81868;-63
2021/11/09 13:03:41;;;;;;;23.88;8.60;;;23.60;42.60;;;;;;6143226;28;80871;-64
2021/11/09 13:06:45;;;;;;;16.95;8.95;;;23.70;42.50;;;;;;6152157;28;80289;-62
2021/11/09 13:09:46;;;;;;;16.88;8.63;;;23.70;42.20;;;;;;6143676;28;80541;-62
2021/11/09 13:12:50;;;;;;;14.27;9.18;;;23.80;41.90;;;;;;6140242;28;87012;-63
2021/11/09 13:15:51;;;;;;;12.35;7.93;;;23.90;42.50;;;;;;6142046;28;80573;-62
2021/11/09 13:18:51;;;;;;;11.70;7.38;;;23.90;42.60;;;;;;6152218;28;80809;-62
2021/11/09 13:21:52;;;;;;;15.73;8.80;;;23.90;42.60;;;;;;6167295;28;81313;-62
2021/11/09 13:24:53;;;;;;;10.10;7.43;;;23.80;42.20;;;;;;6142317;28;80364;-68
2021/11/09 13:27:54;;;;;;;9.68;6.85;;;23.70;42.10;;;;;;6150160;28;80554;-64
2021/11/09 13:30:54;;;;;;;9.18;6.28;;;23.70;43.50;;;;;;6152374;28;80260;-64
2021/11/09 13:33:55;;;;;;;9.90;4.88;;;23.90;45.10;;;;;;6142741;28;80644;-64
2021/11/09 13:36:56;;;;;;;9.45;4.90;;;24.00;45.10;;;;;;6148629;28;81570;-65
2021/11/09 13:39:56;;;;;;;8.43;5.65;;;24.10;45.80;;;;;;6146021;28;80129;-65
2021/11/09 13:42:57;;;;;;;8.57;5.03;;;24.20;46.20;;;;;;6144337;28;80834;-65
2021/11/09 13:45:58;;;;;;;5.95;4.43;;;24.10;46.30;;;;;;6147138;28;80322;-64
2021/11/09 13:48:59;;;;;;;7.25;3.95;;;24.10;47.30;;;;;;6148365;28;80362;-63
2021/11/09 13:51:59;;;;;;;5.53;4.13;;;24.10;48.00;;;;;;6142277;28;80358;-63
2021/11/09 13:55:00;;;;;;;4.90;3.50;;;24.10;48.00;;;;;;6141652;28;82112;-64
2021/11/09 13:58:00;;;;;;;5.78;3.90;;;24.10;48.30;;;;;;6146036;28;81792;-63
2021/11/09 14:01:02;;;;;;;5.18;3.55;;;24.10;48.60;;;;;;6153310;28;80639;-63
2021/11/09 14:04:10;;;;;;;5.57;3.97;;;24.10;48.40;;;;;;6152926;28;80577;-69
2021/11/09 14:13:51;;;;;;;7.45;3.50;;;24.00;48.80;;;;;;6149754;28;81622;-64
2021/11/09 14:16:51;;;;;;;5.25;3.10;;;24.00;48.90;;;;;;6145279;28;80654;-63
2021/11/09 14:19:52;;;;;;;3.55;3.00;;;24.00;49.00;;;;;;6153510;28;80828;-62
2021/11/09 14:22:52;;;;;;;4.15;3.10;;;23.90;49.30;;;;;;6143437;28;81585;-63
2021/11/09 14:25:53;;;;;;;4.88;3.72;;;23.90;49.40;;;;;;6142043;28;81405;-66
2021/11/09 14:28:53;;;;;;;5.00;3.30;;;23.90;49.50;;;;;;6145308;28;81565;-65
2021/11/09 14:31:53;;;;;;;4.50;3.30;;;23.90;49.80;;;;;;6156100;28;81057;-66
2021/11/09 14:34:54;;;;;;;6.07;3.53;;;23.90;49.80;;;;;;6154015;28;81568;-66
2021/11/09 14:38:00;;;;;;;4.00;3.17;;;23.90;49.90;;;;;;6149928;28;81538;-66
2021/11/09 14:41:01;;;;;;;4.15;3.35;;;23.90;50.10;;;;;;6150557;28;81494;-67
2021/11/09 14:44:03;;;;;;;4.55;3.17;;;23.90;50.30;;;;;;6150345;28;80559;-68
2021/11/09 14:47:04;;;;;;;5.13;3.33;;;23.90;50.50;;;;;;6149125;28;80302;-68
2021/11/09 14:50:09;;;;;;;5.13;3.05;;;23.90;50.30;;;;;;6149682;28;80328;-68
2021/11/09 14:53:10;;;;;;;6.15;3.05;;;23.90;50.20;;;;;;6148941;28;81399;-69
2021/11/09 14:56:12;;;;;;;4.55;3.20;;;23.90;50.20;;;;;;6144366;28;80722;-68
2021/11/09 14:59:13;;;;;;;5.88;3.20;;;23.90;50.50;;;;;;6148295;28;81022;-68
2021/11/09 15:02:17;;;;;;;4.75;3.13;;;24.00;50.40;;;;;;6152945;28;81719;-68
2021/11/09 15:05:17;;;;;;;4.57;3.30;;;24.00;50.50;;;;;;6153603;28;81567;-68
2021/11/09 15:08:34;;;;;;;6.45;3.33;;;24.00;50.50;;;;;;6156439;28;81059;-67
2021/11/09 15:12:26;;;;;;;4.32;2.92;;;24.00;50.60;;;;;;6151703;28;86022;-67
2021/11/09 15:31:07;;;;;;;5.88;3.13;;;24.10;51.00;;;;;;6152063;28;80253;-66
2021/11/09 15:40:30;;;;;;;4.63;2.97;;;24.20;51.10;;;;;;6154243;28;80674;-68
2021/11/09 15:43:32;;;;;;;3.85;2.55;;;24.20;51.00;;;;;;6152172;28;80352;-69
2021/11/09 15:46:33;;;;;;;5.88;3.70;;;24.10;50.80;;;;;;6154294;28;80568;-68
2021/11/09 15:49:34;;;;;;;5.93;3.30;;;24.10;50.80;;;;;;6153656;28;80361;-67
2021/11/09 15:52:35;;;;;;;5.38;3.47;;;24.10;50.80;;;;;;6144770;28;80731;-66
2021/11/09 15:55:35;;;;;;;5.95;3.10;;;24.20;51.20;;;;;;6147324;28;80533;-64
2021/11/09 15:58:36;;;;;;;4.57;3.28;;;24.10;50.90;;;;;;6151452;28;81059;-66
2021/11/09 16:01:38;;;;;;;4.60;2.92;;;24.10;51.20;;;;;;6155737;28;80423;-64
2021/11/09 16:04:44;;;;;;;5.63;3.13;;;24.10;51.50;;;;;;6154989;28;80817;-66
2021/11/09 16:07:45;;;;;;;10.88;3.80;;;24.10;51.30;;;;;;6152884;28;81268;-65
2021/11/09 16:10:47;;;;;;;6.68;3.55;;;24.20;51.20;;;;;;6145673;28;80714;-66
2021/11/09 16:13:48;;;;;;;14.20;3.85;;;24.20;51.00;;;;;;6154439;28;80292;-66
2021/11/09 16:16:49;;;;;;;5.72;3.85;;;24.20;50.90;;;;;;6147499;28;80525;-66
2021/11/09 16:19:50;;;;;;;5.75;3.65;;;24.20;50.70;;;;;;6146769;28;81746;-65
2021/11/09 16:22:51;;;;;;;7.25;4.15;;;24.20;51.00;;;;;;6148527;28;80527;-64
2021/11/09 16:25:52;;;;;;;7.18;4.15;;;24.20;51.40;;;;;;6150638;28;81724;-65
2021/11/09 16:28:53;;;;;;;6.35;4.50;;;24.20;50.80;;;;;;6152270;28;81119;-63
2021/11/09 16:31:53;;;;;;;6.43;3.95;;;24.10;50.90;;;;;;6151578;28;81564;-64
2021/11/09 16:34:58;;;;;;;8.13;5.43;;;24.20;50.50;;;;;;6155027;28;80740;-66
2021/11/09 16:37:59;;;;;;;7.68;5.00;;;24.20;50.70;;;;;;6152422;28;80460;-66
2021/11/09 16:41:01;;;;;;;8.20;4.57;;;24.20;50.50;;;;;;6151544;28;80706;-66
2021/11/09 16:44:05;;;;;;;9.48;4.97;;;24.20;50.60;;;;;;6153213;28;80441;-66
2021/11/09 16:47:05;;;;;;;7.18;4.95;;;24.20;50.80;;;;;;6147846;28;82208;-64
2021/11/09 16:53:22;;;;;;;10.93;5.35;;;24.20;51.00;;;;;;6144573;28;81190;-66
2021/11/09 17:10:07;;;;;;;7.03;5.03;;;24.10;51.50;;;;;;6144864;28;81190;-63
2021/11/09 18:21:56;;;;;;;51.28;24.15;;;24.00;53.70;;;;;;6141134;28;82708;-65
2021/11/09 18:24:57;;;;;;;43.03;22.73;;;23.90;52.90;;;;;;6144417;28;83055;-65
2021/11/09 18:27:57;;;;;;;37.13;19.35;;;23.90;52.60;;;;;;6145380;28;83821;-65
2021/11/09 18:30:58;;;;;;;41.03;20.15;;;23.90;52.70;;;;;;6147223;28;83285;-65
2021/11/09 18:33:58;;;;;;;34.72;18.63;;;23.90;52.30;;;;;;6143432;28;84332;-64
2021/11/09 18:37:01;;;;;;;37.45;18.88;;;23.90;51.90;;;;;;6152726;28;84182;-64
2021/11/09 18:40:01;;;;;;;32.40;16.73;;;23.80;51.70;;;;;;6145629;28;82971;-64
2021/11/09 18:43:02;;;;;;;27.65;16.08;;;23.80;51.90;;;;;;6151683;28;85988;-63
2021/11/09 18:46:03;;;;;;;26.08;15.68;;;23.90;51.80;;;;;;6147319;28;83154;-64
2021/11/09 18:49:08;;;;;;;28.25;14.27;;;23.80;51.10;;;;;;6149842;28;82974;-66
2021/11/09 18:52:09;;;;;;;25.73;15.30;;;23.90;51.60;;;;;;6151647;28;84606;-63
2021/11/09 18:55:10;;;;;;;24.02;13.98;;;23.80;51.00;;;;;;6150015;28;84183;-64
2021/11/09 18:58:10;;;;;;;26.17;14.60;;;23.80;50.80;;;;;;6147968;28;83921;-68
2021/11/09 19:01:11;;;;;;;23.67;13.35;;;23.80;50.80;;;;;;6143521;28;83759;-64
2021/11/09 19:04:11;;;;;;;32.95;15.13;;;23.70;50.70;;;;;;6150208;28;83246;-63
2021/11/09 19:07:12;;;;;;;24.55;15.90;;;23.80;50.40;;;;;;6155149;28;83375;-62
2021/11/09 19:10:12;;;;;;;30.83;15.95;;;23.70;50.40;;;;;;6150446;28;83815;-68
2021/11/09 19:13:13;;;;;;;28.17;15.68;;;23.80;49.90;;;;;;6152609;28;83282;-63
2021/11/09 19:16:14;;;;;;;28.52;16.02;;;23.80;49.20;;;;;;6148577;28;84680;-64
2021/11/09 19:19:15;;;;;;;26.35;14.35;;;23.80;49.20;;;;;;6155221;28;83584;-65
2021/11/09 19:22:16;;;;;;;23.13;14.77;;;23.80;49.10;;;;;;6132186;28;83690;-64
2021/11/09 19:25:16;;;;;;;28.67;15.48;;;23.90;48.80;;;;;;6148297;28;83089;-64
2021/11/09 19:28:17;;;;;;;28.40;15.27;;;23.90;48.50;;;;;;6152263;28;83181;-70
2021/11/09 19:31:17;;;;;;;27.98;15.60;;;23.90;47.90;;;;;;6150825;28;84182;-69
2021/11/09 19:34:18;;;;;;;31.77;15.98;;;23.90;47.50;;;;;;6145048;28;82859;-68